createdAt,value
2023-01-07T00:00:28.386Z,7.22
2023-01-07T00:02:57.782Z,7.24
2023-01-07T00:05:27.054Z,7.28
2023-01-07T00:07:56.558Z,7.31
2023-01-07T00:10:25.963Z,7.31
2023-01-07T00:12:55.759Z,7.34
2023-01-07T00:15:25.214Z,7.36
2023-01-07T00:17:54.727Z,7.37
2023-01-07T00:20:24.073Z,7.31
2023-01-07T00:22:53.565Z,7.29
2023-01-07T00:25:23.003Z,7.33
2023-01-07T00:27:52.821Z,7.34
2023-01-07T00:30:24.633Z,7.32
2023-01-07T00:33:04.523Z,7.37
2023-01-07T00:35:36.602Z,7.34
2023-01-07T00:38:06.564Z,7.32
2023-01-07T00:40:35.921Z,7.34
2023-01-07T00:43:06.454Z,7.35
2023-01-07T00:45:37.178Z,7.34
2023-01-07T00:48:07.142Z,7.34
2023-01-07T00:50:37.628Z,7.37
2023-01-07T00:53:07.142Z,7.37
2023-01-07T00:55:36.495Z,7.36
2023-01-07T00:58:06.242Z,7.40
2023-01-07T01:00:38.143Z,7.39
2023-01-07T01:03:07.994Z,7.34
2023-01-07T01:05:37.553Z,7.32
2023-01-07T01:08:07.531Z,7.32
2023-01-07T01:10:36.799Z,7.27
2023-01-07T01:13:06.135Z,7.26
2023-01-07T01:15:35.403Z,7.27
2023-01-07T01:18:05.043Z,7.28
2023-01-07T01:20:37.775Z,7.28
2023-01-07T01:23:08.363Z,7.27
2023-01-07T01:25:37.696Z,7.27
2023-01-07T01:28:07.255Z,7.29
2023-01-07T01:30:36.566Z,7.28
2023-01-07T01:33:05.985Z,7.28
2023-01-07T01:35:39.252Z,7.35
2023-01-07T01:38:14.181Z,7.35
2023-01-07T01:40:45.267Z,7.34
2023-01-07T01:43:35.760Z,7.32
2023-01-07T01:46:12.764Z,7.30
2023-01-07T01:48:47.866Z,7.30
2023-01-07T01:51:21.407Z,7.30
2023-01-07T01:53:52.829Z,7.29
2023-01-07T01:56:26.901Z,7.35
2023-01-07T01:59:00.392Z,7.34
2023-01-07T02:01:32.090Z,7.33
2023-01-07T02:04:05.184Z,7.32
2023-01-07T02:06:37.653Z,7.31
2023-01-07T02:09:07.204Z,7.25
2023-01-07T02:11:49.636Z,7.25
2023-01-07T02:14:35.104Z,7.27
2023-01-07T02:17:13.033Z,7.22
2023-01-07T02:20:16.525Z,7.19
2023-01-07T02:23:05.147Z,7.14
2023-01-07T02:26:02.888Z,7.12
2023-01-07T02:29:07.882Z,7.06
2023-01-07T02:31:58.302Z,6.88
2023-01-07T02:34:36.945Z,6.84
2023-01-07T02:37:15.036Z,6.78
2023-01-07T02:39:56.061Z,6.79
2023-01-07T02:42:34.896Z,6.82
2023-01-07T02:45:11.767Z,6.86
2023-01-07T02:47:47.703Z,6.85
2023-01-07T02:50:17.084Z,6.79
2023-01-07T02:52:46.919Z,6.73
2023-01-07T02:55:19.331Z,6.75
2023-01-07T02:58:23.157Z,6.76
2023-01-07T03:01:08.454Z,6.78
2023-01-07T03:03:52.442Z,6.77
2023-01-07T03:06:31.311Z,6.82
2023-01-07T03:09:10.795Z,6.80
2023-01-07T03:11:47.895Z,6.81
2023-01-07T03:14:20.607Z,6.82
2023-01-07T03:16:55.532Z,6.78
2023-01-07T03:19:30.615Z,6.76
2023-01-07T03:22:02.781Z,6.75
2023-01-07T03:24:33.307Z,6.74
2023-01-07T03:27:05.512Z,6.72
2023-01-07T03:29:35.774Z,6.69
2023-01-07T03:32:12.024Z,6.70
2023-01-07T03:34:42.964Z,6.68
2023-01-07T03:37:14.584Z,6.67
2023-01-07T03:39:46.928Z,6.65
2023-01-07T03:42:39.592Z,6.65
2023-01-07T03:45:14.799Z,6.59
2023-01-07T03:47:47.613Z,6.55
2023-01-07T03:50:20.839Z,6.50
2023-01-07T03:52:53.929Z,6.46
2023-01-07T03:55:22.926Z,6.38
2023-01-07T03:57:53.250Z,6.32
2023-01-07T04:00:23.024Z,6.35
2023-01-07T04:02:56.107Z,6.33
2023-01-07T04:05:29.463Z,6.34
2023-01-07T04:07:59.305Z,6.33
2023-01-07T04:10:30.822Z,6.32
2023-01-07T04:13:00.268Z,6.30
2023-01-07T04:15:29.754Z,6.32
2023-01-07T04:17:59.719Z,6.31
2023-01-07T04:20:32.320Z,6.32
2023-01-07T04:23:01.832Z,6.27
2023-01-07T04:25:32.239Z,6.27
2023-01-07T04:28:02.051Z,6.27
2023-01-07T04:30:32.904Z,6.25
2023-01-07T04:33:02.607Z,6.23
2023-01-07T04:35:32.555Z,6.16
2023-01-07T04:38:02.284Z,6.09
2023-01-07T04:40:32.473Z,6.08
2023-01-07T04:43:03.167Z,6.00
2023-01-07T04:45:32.892Z,6.01
2023-01-07T04:48:02.803Z,5.99
2023-01-07T04:50:32.213Z,5.97
2023-01-07T04:53:02.006Z,5.94
2023-01-07T04:55:31.542Z,5.96
2023-01-07T04:58:00.867Z,5.94
2023-01-07T05:00:30.695Z,5.91
2023-01-07T05:03:00.036Z,5.88
2023-01-07T05:05:30.095Z,5.91
2023-01-07T05:07:59.994Z,5.90
2023-01-07T05:10:30.279Z,5.81
2023-01-07T05:13:00.136Z,5.77
2023-01-07T05:15:29.918Z,5.72
2023-01-07T05:17:59.546Z,5.71
2023-01-07T05:20:31.568Z,5.65
2023-01-07T05:23:01.313Z,5.60
2023-01-07T05:25:31.191Z,5.54
2023-01-07T05:28:00.850Z,5.43
2023-01-07T05:30:31.626Z,5.35
2023-01-07T05:33:01.236Z,5.31
2023-01-07T05:35:30.727Z,5.30
2023-01-07T05:38:00.140Z,5.25
2023-01-07T05:40:29.671Z,5.19
2023-01-07T05:42:59.138Z,5.17
2023-01-07T05:45:29.817Z,5.13
2023-01-07T05:47:59.195Z,5.09
2023-01-07T05:50:28.854Z,5.04
2023-01-07T05:52:58.180Z,5.03
2023-01-07T05:55:27.911Z,5.02
2023-01-07T05:57:57.984Z,5.03
2023-01-07T06:00:27.440Z,5.05
2023-01-07T06:02:57.219Z,5.04
2023-01-07T06:05:26.674Z,5.05
2023-01-07T06:07:56.525Z,5.06
2023-01-07T06:10:27.392Z,5.09
2023-01-07T06:12:56.857Z,5.09
2023-01-07T06:15:26.415Z,5.08
2023-01-07T06:17:55.806Z,5.08
2023-01-07T06:20:25.776Z,5.08
2023-01-07T06:22:55.456Z,5.05
2023-01-07T06:25:25.175Z,5.04
2023-01-07T06:27:56.286Z,5.02
2023-01-07T06:30:25.817Z,5.00
2023-01-07T06:32:55.564Z,5.00
2023-01-07T06:35:24.956Z,4.98
2023-01-07T06:37:54.393Z,4.96
2023-01-07T06:40:23.773Z,4.96
2023-01-07T06:42:53.482Z,4.96
2023-01-07T06:45:22.863Z,4.98
2023-01-07T06:47:52.285Z,5.00
2023-01-07T06:50:21.613Z,5.03
2023-01-07T06:52:51.056Z,5.05
2023-01-07T06:55:20.814Z,5.07
2023-01-07T06:57:50.196Z,5.09
2023-01-07T07:00:20.300Z,5.09
2023-01-07T07:02:52.494Z,5.08
2023-01-07T07:05:22.186Z,5.10
2023-01-07T07:07:51.646Z,5.13
2023-01-07T07:10:21.444Z,5.13
2023-01-07T07:12:50.850Z,5.14
2023-01-07T07:15:20.360Z,5.16
2023-01-07T07:17:49.874Z,5.13
2023-01-07T07:20:19.392Z,5.13
2023-01-07T07:22:49.667Z,5.18
2023-01-07T07:25:19.696Z,5.24
2023-01-07T07:27:49.203Z,5.25
2023-01-07T07:30:19.025Z,5.27
2023-01-07T07:32:48.489Z,5.29
2023-01-07T07:35:18.424Z,5.30
2023-01-07T07:37:48.033Z,5.34
2023-01-07T07:40:17.758Z,5.36
2023-01-07T07:43:10.724Z,5.39
2023-01-07T07:45:36.850Z,5.45
2023-01-07T07:48:07.763Z,5.50
2023-01-07T07:50:39.023Z,5.54
2023-01-07T07:53:09.942Z,5.64
2023-01-07T07:55:40.106Z,5.65
2023-01-07T07:58:09.745Z,5.67
2023-01-07T08:00:39.264Z,5.75
2023-01-07T08:03:11.708Z,5.79
2023-01-07T08:05:44.105Z,5.81
2023-01-07T08:08:15.192Z,5.90
2023-01-07T08:10:44.978Z,5.93
2023-01-07T08:13:14.331Z,5.87
2023-01-07T08:15:43.754Z,5.85
2023-01-07T08:18:13.572Z,5.92
2023-01-07T08:20:43.235Z,6.02
2023-01-07T08:23:12.785Z,6.08
2023-01-07T08:25:43.222Z,6.15
2023-01-07T08:28:12.608Z,6.22
2023-01-07T08:30:43.214Z,6.30
2023-01-07T08:33:12.753Z,6.36
2023-01-07T08:35:44.715Z,6.40
2023-01-07T08:38:14.555Z,6.44
2023-01-07T08:40:44.422Z,6.49
2023-01-07T08:43:13.824Z,6.54
2023-01-07T08:45:48.116Z,6.58
2023-01-07T08:48:17.808Z,6.64
2023-01-07T08:50:51.614Z,6.71
2023-01-07T08:53:21.815Z,6.75
2023-01-07T08:55:51.263Z,6.75
2023-01-07T08:58:20.734Z,6.76
2023-01-07T09:00:50.187Z,6.73
2023-01-07T09:03:20.323Z,6.73
2023-01-07T09:05:49.986Z,6.77
2023-01-07T09:08:25.806Z,6.81
2023-01-07T09:10:58.803Z,6.82
2023-01-07T09:13:29.166Z,6.88
2023-01-07T09:16:01.589Z,6.93
2023-01-07T09:18:31.161Z,6.98
2023-01-07T09:21:00.854Z,7.00
2023-01-07T09:23:30.838Z,7.01
2023-01-07T09:26:00.523Z,7.11
2023-01-07T09:28:30.184Z,7.16
2023-01-07T09:31:00.443Z,7.23
2023-01-07T09:33:33.482Z,7.33
2023-01-07T09:36:03.425Z,7.40
2023-01-07T09:38:40.503Z,7.47
2023-01-07T09:41:27.846Z,7.46
2023-01-07T09:44:05.778Z,7.46
2023-01-07T09:46:37.413Z,7.52
2023-01-07T09:49:11.386Z,7.61
2023-01-07T09:51:45.386Z,7.60
2023-01-07T09:54:24.163Z,7.63
2023-01-07T09:56:53.971Z,7.73
2023-01-07T09:59:23.462Z,7.79
2023-01-07T10:02:01.543Z,7.79
2023-01-07T10:04:44.163Z,7.80
2023-01-07T10:07:27.809Z,7.85
2023-01-07T10:10:14.023Z,7.84
2023-01-07T10:12:55.120Z,7.87
2023-01-07T10:15:50.083Z,8.05
2023-01-07T10:18:32.884Z,8.29
2023-01-07T10:21:12.575Z,8.58
2023-01-07T10:23:45.165Z,8.80
2023-01-07T10:26:26.174Z,8.97
2023-01-07T10:29:01.661Z,9.12
2023-01-07T10:31:32.647Z,9.24
2023-01-07T10:34:04.014Z,9.34
2023-01-07T10:36:38.350Z,9.44
2023-01-07T10:39:21.642Z,9.48
2023-01-07T10:42:00.463Z,9.54
2023-01-07T10:44:56.934Z,9.59
2023-01-07T10:47:43.187Z,9.76
2023-01-07T10:50:38.505Z,9.90
2023-01-07T10:53:22.352Z,10.03
2023-01-07T10:56:00.043Z,10.06
2023-01-07T10:58:36.795Z,10.12
2023-01-07T11:01:07.806Z,10.20
2023-01-07T11:03:39.795Z,10.27
2023-01-07T11:06:14.810Z,10.25
2023-01-07T11:08:44.444Z,10.31
2023-01-07T11:11:18.013Z,10.30
2023-01-07T11:13:52.205Z,10.29
2023-01-07T11:16:22.719Z,10.24
2023-01-07T11:18:59.380Z,10.31
2023-01-07T11:21:42.571Z,10.39
2023-01-07T11:24:34.117Z,10.43
2023-01-07T11:27:14.094Z,10.38
2023-01-07T11:29:57.372Z,10.40
2023-01-07T11:32:31.684Z,10.38
2023-01-07T11:35:06.605Z,10.32
2023-01-07T11:37:40.666Z,10.41
2023-01-07T11:40:25.475Z,10.41
2023-01-07T11:43:01.684Z,10.43
2023-01-07T11:45:38.596Z,10.50
2023-01-07T11:48:22.338Z,10.58
2023-01-07T11:50:59.009Z,10.67
2023-01-07T11:53:48.173Z,10.65
2023-01-07T11:56:29.940Z,10.63
2023-01-07T11:59:31.441Z,10.61
2023-01-07T12:02:06.224Z,10.60
2023-01-07T12:04:40.650Z,10.33
2023-01-07T12:07:18.594Z,10.17
2023-01-07T12:09:52.009Z,10.03
2023-01-07T12:12:36.837Z,9.93
2023-01-07T12:15:24.928Z,9.77
2023-01-07T12:18:36.159Z,9.64
2023-01-07T12:21:27.809Z,9.46
2023-01-07T12:24:23.217Z,9.41
2023-01-07T12:27:13.398Z,9.32
2023-01-07T12:29:58.737Z,9.25
2023-01-07T12:32:46.959Z,9.20
2023-01-07T12:35:26.421Z,9.20
2023-01-07T12:38:07.329Z,9.19
2023-01-07T12:40:54.125Z,9.21
2023-01-07T12:43:31.438Z,9.24
2023-01-07T12:46:06.185Z,9.29
2023-01-07T12:48:50.962Z,9.30
2023-01-07T12:51:28.069Z,9.27
2023-01-07T12:54:05.942Z,9.31
2023-01-07T12:56:39.663Z,9.32
2023-01-07T12:59:46.751Z,9.33
2023-01-07T13:02:25.739Z,9.37
2023-01-07T13:05:06.813Z,9.38
2023-01-07T13:07:47.562Z,9.38
2023-01-07T13:10:24.028Z,9.36
2023-01-07T13:13:01.903Z,9.31
2023-01-07T13:15:33.375Z,9.29
2023-01-07T13:18:15.267Z,9.19
2023-01-07T13:21:03.670Z,9.21
2023-01-07T13:23:54.910Z,9.19
2023-01-07T13:26:34.883Z,9.12
2023-01-07T13:29:13.806Z,9.02
2023-01-07T13:31:59.257Z,8.99
2023-01-07T13:34:39.715Z,9.02
2023-01-07T13:37:24.913Z,8.99
2023-01-07T13:40:21.640Z,8.97
2023-01-07T13:42:55.479Z,8.93
2023-01-07T13:45:27.112Z,8.91
2023-01-07T13:47:59.083Z,8.88
2023-01-07T13:50:34.994Z,8.81
2023-01-07T13:53:07.930Z,8.71
2023-01-07T13:55:40.586Z,8.59
2023-01-07T13:58:44.168Z,8.48
2023-01-07T14:01:15.203Z,8.34
2023-01-07T14:03:49.822Z,8.21
2023-01-07T14:06:42.821Z,8.05
2023-01-07T14:09:41.383Z,8.00
2023-01-07T14:12:50.564Z,7.97
2023-01-07T14:15:53.964Z,7.92
2023-01-07T14:18:53.476Z,7.89
2023-01-07T14:21:49.054Z,7.84
2023-01-07T14:24:30.942Z,7.74
2023-01-07T14:27:14.329Z,7.62
2023-01-07T14:29:48.181Z,7.53
2023-01-07T14:32:29.653Z,7.53
2023-01-07T14:35:03.182Z,7.46
2023-01-07T14:37:38.860Z,7.41
2023-01-07T14:40:58.022Z,7.38
2023-01-07T14:44:01.944Z,7.42
2023-01-07T14:46:51.799Z,7.34
2023-01-07T14:49:55.319Z,7.28
2023-01-07T14:53:23.722Z,7.24
2023-01-07T14:56:17.190Z,7.09
2023-01-07T14:59:07.928Z,6.90
2023-01-07T15:02:03.417Z,6.72
2023-01-07T15:05:07.947Z,6.64
2023-01-07T15:07:38.807Z,6.60
2023-01-07T15:10:38.862Z,6.46
2023-01-07T15:13:32.532Z,6.35
2023-01-07T15:16:03.687Z,6.21
2023-01-07T15:18:42.524Z,6.22
2023-01-07T15:21:19.674Z,6.15
2023-01-07T15:23:56.644Z,6.13
2023-01-07T15:26:37.719Z,6.15
2023-01-07T15:29:18.316Z,6.16
2023-01-07T15:31:57.180Z,6.18
2023-01-07T15:34:30.741Z,6.17
2023-01-07T15:37:02.319Z,6.15
2023-01-07T15:39:35.079Z,6.03
2023-01-07T15:42:05.299Z,6.01
2023-01-07T15:44:40.961Z,5.99
2023-01-07T15:47:40.600Z,5.85
2023-01-07T15:50:28.590Z,5.78
2023-01-07T15:52:59.995Z,5.73
2023-01-07T15:55:33.608Z,5.71
2023-01-07T15:58:04.165Z,5.65
2023-01-07T16:00:34.443Z,5.54
2023-01-07T16:03:05.249Z,5.57
2023-01-07T16:05:38.588Z,5.51
2023-01-07T16:08:17.821Z,5.44
2023-01-07T16:11:00.528Z,5.38
2023-01-07T16:13:31.076Z,5.31
2023-01-07T16:16:03.269Z,5.26
2023-01-07T16:18:33.282Z,5.09
2023-01-07T16:21:07.264Z,5.05
2023-01-07T16:23:38.083Z,4.91
2023-01-07T16:26:09.688Z,4.90
2023-01-07T16:28:41.816Z,4.97
2023-01-07T16:31:14.934Z,5.01
2023-01-07T16:33:44.274Z,5.04
2023-01-07T16:36:17.066Z,4.91
2023-01-07T16:38:48.658Z,4.92
2023-01-07T16:41:22.959Z,4.89
2023-01-07T16:43:54.880Z,4.88
2023-01-07T16:46:28.248Z,4.83
2023-01-07T16:49:22.583Z,4.78
2023-01-07T16:51:51.847Z,4.72
2023-01-07T16:54:31.346Z,4.66
2023-01-07T16:57:02.523Z,4.58
2023-01-07T16:59:33.616Z,4.59
2023-01-07T17:02:13.150Z,4.56
2023-01-07T17:04:42.736Z,4.47
2023-01-07T17:07:21.886Z,4.43
2023-01-07T17:09:53.695Z,4.46
2023-01-07T17:12:34.986Z,4.43
2023-01-07T17:15:33.649Z,4.42
2023-01-07T17:18:29.468Z,4.44
2023-01-07T17:21:00.575Z,4.47
2023-01-07T17:23:40.180Z,4.26
2023-01-07T17:26:19.583Z,4.21
2023-01-07T17:28:51.601Z,4.13
2023-01-07T17:31:22.213Z,4.21
2023-01-07T17:33:52.621Z,4.07
2023-01-07T17:36:23.708Z,4.09
2023-01-07T17:38:53.430Z,4.13
2023-01-07T17:41:42.086Z,4.27
2023-01-07T17:44:14.030Z,4.14
2023-01-07T17:46:43.769Z,4.07
2023-01-07T17:49:13.198Z,4.07
2023-01-07T17:51:44.604Z,4.02
2023-01-07T17:54:20.409Z,3.96
2023-01-07T17:56:50.233Z,3.92
2023-01-07T17:59:21.504Z,3.93
2023-01-07T18:01:51.836Z,3.98
2023-01-07T18:04:22.002Z,4.08
2023-01-07T18:06:51.449Z,4.07
2023-01-07T18:09:20.935Z,4.11
2023-01-07T18:12:08.779Z,4.10
2023-01-07T18:14:38.464Z,3.99
2023-01-07T18:17:08.078Z,3.95
2023-01-07T18:19:37.487Z,3.90
2023-01-07T18:22:07.037Z,3.89
2023-01-07T18:24:36.777Z,3.83
2023-01-07T18:27:06.135Z,3.86
2023-01-07T18:29:35.650Z,3.79
2023-01-07T18:32:05.300Z,3.76
2023-01-07T18:34:34.616Z,3.82
2023-01-07T18:37:03.966Z,3.72
2023-01-07T18:39:33.469Z,3.74
2023-01-07T18:42:03.107Z,3.75
2023-01-07T18:44:32.931Z,3.65
2023-01-07T18:47:02.306Z,3.66
2023-01-07T18:49:31.878Z,3.63
2023-01-07T18:52:01.318Z,3.51
2023-01-07T18:54:32.766Z,3.44
2023-01-07T18:57:02.332Z,3.44
2023-01-07T18:59:31.822Z,3.50
2023-01-07T19:02:01.565Z,3.44
2023-01-07T19:04:31.326Z,3.46
2023-01-07T19:07:03.390Z,3.47
2023-01-07T19:09:35.585Z,3.37
2023-01-07T19:12:06.251Z,3.32
2023-01-07T19:14:36.098Z,3.29
2023-01-07T19:17:07.499Z,3.30
2023-01-07T19:19:47.908Z,3.37
2023-01-07T19:22:24.342Z,3.57
2023-01-07T19:24:58.725Z,3.66
2023-01-07T19:27:29.328Z,3.59
2023-01-07T19:29:59.360Z,3.58
2023-01-07T19:32:30.394Z,3.47
2023-01-07T19:35:00.452Z,3.46
2023-01-07T19:37:31.008Z,3.49
2023-01-07T19:40:01.705Z,3.60
2023-01-07T19:42:31.678Z,3.57
2023-01-07T19:45:06.540Z,3.55
2023-01-07T19:47:41.800Z,3.54
2023-01-07T19:50:14.267Z,3.56
2023-01-07T19:52:49.876Z,3.51
2023-01-07T19:55:23.094Z,3.52
2023-01-07T19:57:53.237Z,3.56
2023-01-07T20:00:31.598Z,3.53
2023-01-07T20:03:06.037Z,3.59
2023-01-07T20:05:40.432Z,3.56
2023-01-07T20:08:13.537Z,3.57
2023-01-07T20:10:43.058Z,3.54
2023-01-07T20:13:12.436Z,3.49
2023-01-07T20:15:43.278Z,3.48
2023-01-07T20:18:18.190Z,3.44
2023-01-07T20:20:59.834Z,3.43
2023-01-07T20:23:32.788Z,3.43
2023-01-07T20:26:08.694Z,3.41
2023-01-07T20:28:42.477Z,3.25
2023-01-07T20:31:16.870Z,3.25
2023-01-07T20:33:51.665Z,3.25
2023-01-07T20:36:26.743Z,3.23
2023-01-07T20:39:06.640Z,3.22
2023-01-07T20:41:43.419Z,3.17
2023-01-07T20:44:16.429Z,3.21
2023-01-07T20:46:54.821Z,3.21
2023-01-07T20:49:27.599Z,3.19
2023-01-07T20:52:05.581Z,3.13
2023-01-07T20:54:47.848Z,2.96
2023-01-07T20:57:38.430Z,2.91
2023-01-07T21:00:15.748Z,2.86
2023-01-07T21:02:45.466Z,2.86
2023-01-07T21:05:19.696Z,2.86
2023-01-07T21:07:47.951Z,2.85
2023-01-07T21:10:20.704Z,2.85
2023-01-07T21:12:50.479Z,2.91
2023-01-07T21:15:20.600Z,2.87
2023-01-07T21:17:53.045Z,2.90
2023-01-07T21:20:23.158Z,2.88
2023-01-07T21:22:52.463Z,2.89
2023-01-07T21:25:27.562Z,2.90
2023-01-07T21:27:58.049Z,2.94
2023-01-07T21:30:34.051Z,2.95
2023-01-07T21:33:09.041Z,3.06
2023-01-07T21:35:41.846Z,3.11
2023-01-07T21:38:11.315Z,3.15
2023-01-07T21:40:40.636Z,3.06
2023-01-07T21:43:10.123Z,3.07
2023-01-07T21:45:39.343Z,3.10
2023-01-07T21:48:08.830Z,3.06
2023-01-07T21:50:39.047Z,3.03
2023-01-07T21:53:08.351Z,3.06
2023-01-07T21:55:40.014Z,3.12
2023-01-07T21:58:09.309Z,3.13
2023-01-07T22:00:39.351Z,3.14
2023-01-07T22:03:08.788Z,3.06
2023-01-07T22:05:38.065Z,3.01
2023-01-07T22:08:08.758Z,3.06
2023-01-07T22:10:38.000Z,3.06
2023-01-07T22:13:07.620Z,3.03
2023-01-07T22:15:39.572Z,3.00
2023-01-07T22:18:09.075Z,2.99
2023-01-07T22:20:38.868Z,3.06
2023-01-07T22:23:11.197Z,3.05
2023-01-07T22:25:40.641Z,3.09
2023-01-07T22:28:10.681Z,3.11
2023-01-07T22:30:44.818Z,3.07
2023-01-07T22:33:14.107Z,3.04
2023-01-07T22:35:43.980Z,2.92
2023-01-07T22:38:16.712Z,2.83
2023-01-07T22:40:46.613Z,2.82
2023-01-07T22:43:18.805Z,2.77
2023-01-07T22:45:54.532Z,2.76
2023-01-07T22:48:27.069Z,2.84
2023-01-07T22:51:02.805Z,2.80
2023-01-07T22:53:32.720Z,2.84
2023-01-07T22:56:03.645Z,2.85
2023-01-07T22:58:32.946Z,2.87
2023-01-07T23:01:12.399Z,2.88
2023-01-07T23:03:42.590Z,2.90
2023-01-07T23:06:14.166Z,2.93
2023-01-07T23:08:43.785Z,2.98
2023-01-07T23:11:34.219Z,2.98
2023-01-07T23:14:04.218Z,2.92
2023-01-07T23:16:36.957Z,2.95
2023-01-07T23:19:07.046Z,2.93
2023-01-07T23:21:38.864Z,2.87
2023-01-07T23:24:09.400Z,2.92
2023-01-07T23:26:39.804Z,2.95
2023-01-07T23:29:10.110Z,2.96
2023-01-07T23:31:39.510Z,2.94
2023-01-07T23:34:09.872Z,2.85
2023-01-07T23:36:39.632Z,2.86
2023-01-07T23:39:09.308Z,2.89
2023-01-07T23:41:38.801Z,2.91
2023-01-07T23:44:08.164Z,2.90
2023-01-07T23:46:37.661Z,2.87
2023-01-07T23:49:07.208Z,2.92
2023-01-07T23:51:36.610Z,2.90
2023-01-07T23:54:06.159Z,2.90
2023-01-07T23:56:36.637Z,2.92
2023-01-07T23:59:06.260Z,3.02
